sensor_id;sensor_type;location;lat;lon;timestamp;P1;durP1;ratioP1;P2;durP2;ratioP2
9854;SDS011;4966;48.112;9.282;2023-07-29T00:01:07;61.35;;;35.63;;
9854;SDS011;4966;48.112;9.282;2023-07-29T00:03:32;1999.90;;;999.90;;
9854;SDS011;4966;48.112;9.282;2023-07-29T00:05:58;1999.90;;;999.90;;
9854;SDS011;4966;48.112;9.282;2023-07-29T00:08:23;35.80;;;32.97;;
9854;SDS011;4966;48.112;9.282;2023-07-29T00:10:49;17.55;;;11.93;;
9854;SDS011;4966;48.112;9.282;2023-07-29T00:13:14;60.33;;;22.50;;
9854;SDS011;4966;48.112;9.282;2023-07-29T00:15:39;1999.90;;;999.90;;
9854;SDS011;4966;48.112;9.282;2023-07-29T00:18:05;49.20;;;9.25;;
9854;SDS011;4966;48.112;9.282;2023-07-29T00:20:30;18.33;;;3.60;;
9854;SDS011;4966;48.112;9.282;2023-07-29T00:22:55;6.53;;;2.58;;
9854;SDS011;4966;48.112;9.282;2023-07-29T00:25:23;10.57;;;2.72;;
9854;SDS011;4966;48.112;9.282;2023-07-29T00:27:48;12.95;;;2.15;;
9854;SDS011;4966;48.112;9.282;2023-07-29T00:30:13;15.40;;;2.60;;
9854;SDS011;4966;48.112;9.282;2023-07-29T00:32:39;16.50;;;2.30;;
9854;SDS011;4966;48.112;9.282;2023-07-29T00:35:04;30.88;;;2.58;;
9854;SDS011;4966;48.112;9.282;2023-07-29T00:37:30;31.30;;;3.38;;
9854;SDS011;4966;48.112;9.282;2023-07-29T00:39:56;9.43;;;2.70;;
9854;SDS011;4966;48.112;9.282;2023-07-29T00:42:21;9.48;;;2.70;;
9854;SDS011;4966;48.112;9.282;2023-07-29T00:44:47;1999.90;;;999.90;;
9854;SDS011;4966;48.112;9.282;2023-07-29T00:47:12;14.80;;;2.80;;
9854;SDS011;4966;48.112;9.282;2023-07-29T00:49:40;121.07;;;48.42;;
9854;SDS011;4966;48.112;9.282;2023-07-29T00:52:06;1999.90;;;999.90;;
9854;SDS011;4966;48.112;9.282;2023-07-29T00:54:32;1999.90;;;999.90;;
9854;SDS011;4966;48.112;9.282;2023-07-29T00:56:57;8.02;;;3.78;;
9854;SDS011;4966;48.112;9.282;2023-07-29T00:59:22;701.35;;;287.45;;
9854;SDS011;4966;48.112;9.282;2023-07-29T01:01:48;1107.20;;;358.27;;
9854;SDS011;4966;48.112;9.282;2023-07-29T01:04:13;1999.90;;;999.90;;
9854;SDS011;4966;48.112;9.282;2023-07-29T01:06:58;1999.90;;;999.90;;
9854;SDS011;4966;48.112;9.282;2023-07-29T01:17:46;1999.90;;;999.90;;
9854;SDS011;4966;48.112;9.282;2023-07-29T01:20:15;1999.90;;;999.90;;
9854;SDS011;4966;48.112;9.282;2023-07-29T01:22:42;1999.90;;;999.90;;
9854;SDS011;4966;48.112;9.282;2023-07-29T01:25:08;1999.90;;;999.90;;
9854;SDS011;4966;48.112;9.282;2023-07-29T01:27:33;2.97;;;2.67;;
9854;SDS011;4966;48.112;9.282;2023-07-29T01:29:59;67.97;;;21.95;;
9854;SDS011;4966;48.112;9.282;2023-07-29T01:32:32;2.55;;;2.35;;
9854;SDS011;4966;48.112;9.282;2023-07-29T01:35:10;1999.90;;;999.90;;
9854;SDS011;4966;48.112;9.282;2023-07-29T01:37:39;1999.90;;;999.90;;
9854;SDS011;4966;48.112;9.282;2023-07-29T01:40:06;1999.90;;;999.90;;
9854;SDS011;4966;48.112;9.282;2023-07-29T01:42:33;1999.90;;;999.90;;
9854;SDS011;4966;48.112;9.282;2023-07-29T01:44:59;1568.18;;;757.60;;
9854;SDS011;4966;48.112;9.282;2023-07-29T01:47:25;1999.90;;;999.90;;
9854;SDS011;4966;48.112;9.282;2023-07-29T01:49:50;1999.90;;;999.90;;
9854;SDS011;4966;48.112;9.282;2023-07-29T01:52:15;1999.90;;;999.90;;
9854;SDS011;4966;48.112;9.282;2023-07-29T01:54:41;132.23;;;30.50;;
9854;SDS011;4966;48.112;9.282;2023-07-29T01:57:06;6.57;;;0.50;;
9854;SDS011;4966;48.112;9.282;2023-07-29T01:59:31;10.32;;;0.60;;
9854;SDS011;4966;48.112;9.282;2023-07-29T02:01:57;4.93;;;0.73;;
9854;SDS011;4966;48.112;9.282;2023-07-29T02:04:22;3.58;;;1.02;;
9854;SDS011;4966;48.112;9.282;2023-07-29T02:06:47;3.42;;;1.35;;
9854;SDS011;4966;48.112;9.282;2023-07-29T02:09:13;0.63;;;0.47;;
9854;SDS011;4966;48.112;9.282;2023-07-29T02:11:38;0.73;;;0.47;;
9854;SDS011;4966;48.112;9.282;2023-07-29T02:14:03;1.17;;;0.25;;
9854;SDS011;4966;48.112;9.282;2023-07-29T02:16:28;0.50;;;0.40;;
9854;SDS011;4966;48.112;9.282;2023-07-29T02:18:54;0.70;;;0.47;;
9854;SDS011;4966;48.112;9.282;2023-07-29T02:21:19;4.95;;;0.65;;
9854;SDS011;4966;48.112;9.282;2023-07-29T02:23:45;0.75;;;0.35;;
9854;SDS011;4966;48.112;9.282;2023-07-29T02:26:10;0.13;;;0.13;;
9854;SDS011;4966;48.112;9.282;2023-07-29T02:28:35;2.78;;;0.70;;
9854;SDS011;4966;48.112;9.282;2023-07-29T02:33:46;1.35;;;0.60;;
9854;SDS011;4966;48.112;9.282;2023-07-29T02:36:12;0.75;;;0.30;;
9854;SDS011;4966;48.112;9.282;2023-07-29T02:38:38;6.10;;;0.60;;
9854;SDS011;4966;48.112;9.282;2023-07-29T02:41:03;2.38;;;0.60;;
9854;SDS011;4966;48.112;9.282;2023-07-29T02:43:29;1.17;;;0.50;;
9854;SDS011;4966;48.112;9.282;2023-07-29T02:45:54;2.80;;;0.68;;
9854;SDS011;4966;48.112;9.282;2023-07-29T02:48:20;2.08;;;0.50;;
9854;SDS011;4966;48.112;9.282;2023-07-29T02:50:45;0.82;;;0.40;;
9854;SDS011;4966;48.112;9.282;2023-07-29T02:53:10;0.52;;;0.50;;
9854;SDS011;4966;48.112;9.282;2023-07-29T02:55:39;1.15;;;0.43;;
9854;SDS011;4966;48.112;9.282;2023-07-29T02:58:05;0.80;;;0.52;;
9854;SDS011;4966;48.112;9.282;2023-07-29T03:00:31;1.33;;;0.70;;
9854;SDS011;4966;48.112;9.282;2023-07-29T03:02:57;1.60;;;0.77;;
9854;SDS011;4966;48.112;9.282;2023-07-29T03:05:23;0.88;;;0.57;;
9854;SDS011;4966;48.112;9.282;2023-07-29T03:07:48;1.67;;;0.80;;
9854;SDS011;4966;48.112;9.282;2023-07-29T03:10:13;1.50;;;0.60;;
9854;SDS011;4966;48.112;9.282;2023-07-29T03:12:40;2.95;;;0.90;;
9854;SDS011;4966;48.112;9.282;2023-07-29T03:15:05;9.93;;;1.40;;
9854;SDS011;4966;48.112;9.282;2023-07-29T03:17:31;2.05;;;0.70;;
9854;SDS011;4966;48.112;9.282;2023-07-29T03:19:56;1.23;;;0.60;;
9854;SDS011;4966;48.112;9.282;2023-07-29T03:22:22;1.30;;;0.52;;
9854;SDS011;4966;48.112;9.282;2023-07-29T03:24:47;2.20;;;0.77;;
9854;SDS011;4966;48.112;9.282;2023-07-29T03:27:12;1.58;;;0.70;;
9854;SDS011;4966;48.112;9.282;2023-07-29T03:29:40;1.63;;;0.60;;
9854;SDS011;4966;48.112;9.282;2023-07-29T03:32:05;4.20;;;0.98;;
9854;SDS011;4966;48.112;9.282;2023-07-29T03:34:31;2.17;;;0.93;;
9854;SDS011;4966;48.112;9.282;2023-07-29T03:36:56;4.43;;;0.82;;
9854;SDS011;4966;48.112;9.282;2023-07-29T03:39:22;2.20;;;0.95;;
9854;SDS011;4966;48.112;9.282;2023-07-29T03:41:48;2.05;;;0.75;;
9854;SDS011;4966;48.112;9.282;2023-07-29T03:44:13;2.10;;;0.90;;
9854;SDS011;4966;48.112;9.282;2023-07-29T03:46:38;1.42;;;0.75;;
9854;SDS011;4966;48.112;9.282;2023-07-29T03:49:04;1.48;;;0.77;;
9854;SDS011;4966;48.112;9.282;2023-07-29T03:51:29;1.25;;;0.68;;
9854;SDS011;4966;48.112;9.282;2023-07-29T03:53:54;0.95;;;0.55;;
9854;SDS011;4966;48.112;9.282;2023-07-29T03:56:19;1.77;;;0.60;;
9854;SDS011;4966;48.112;9.282;2023-07-29T03:58:45;1.60;;;0.70;;
9854;SDS011;4966;48.112;9.282;2023-07-29T04:01:11;1.75;;;1.10;;
9854;SDS011;4966;48.112;9.282;2023-07-29T04:03:38;1.58;;;0.82;;
9854;SDS011;4966;48.112;9.282;2023-07-29T04:06:03;2.10;;;1.17;;
9854;SDS011;4966;48.112;9.282;2023-07-29T04:08:28;1.98;;;0.85;;
9854;SDS011;4966;48.112;9.282;2023-07-29T04:10:54;1.95;;;0.70;;
9854;SDS011;4966;48.112;9.282;2023-07-29T04:13:19;3.30;;;0.93;;
9854;SDS011;4966;48.112;9.282;2023-07-29T04:15:45;10.70;;;1.73;;
9854;SDS011;4966;48.112;9.282;2023-07-29T04:18:10;1.75;;;0.90;;
9854;SDS011;4966;48.112;9.282;2023-07-29T04:20:35;3.50;;;0.95;;
9854;SDS011;4966;48.112;9.282;2023-07-29T04:23:01;2.45;;;1.05;;
9854;SDS011;4966;48.112;9.282;2023-07-29T04:25:26;1.02;;;0.50;;
9854;SDS011;4966;48.112;9.282;2023-07-29T04:27:51;3.80;;;1.00;;
9854;SDS011;4966;48.112;9.282;2023-07-29T04:30:16;1.35;;;0.57;;
9854;SDS011;4966;48.112;9.282;2023-07-29T04:32:42;1.15;;;0.98;;
9854;SDS011;4966;48.112;9.282;2023-07-29T04:35:08;1.75;;;0.70;;
9854;SDS011;4966;48.112;9.282;2023-07-29T04:37:34;1.80;;;0.77;;
9854;SDS011;4966;48.112;9.282;2023-07-29T04:39:59;2.47;;;1.20;;
9854;SDS011;4966;48.112;9.282;2023-07-29T04:42:24;2.30;;;1.00;;
9854;SDS011;4966;48.112;9.282;2023-07-29T04:44:50;2.40;;;0.70;;
9854;SDS011;4966;48.112;9.282;2023-07-29T04:47:15;3.03;;;0.90;;
9854;SDS011;4966;48.112;9.282;2023-07-29T04:49:40;2.00;;;1.08;;
9854;SDS011;4966;48.112;9.282;2023-07-29T04:52:05;2.95;;;0.95;;
9854;SDS011;4966;48.112;9.282;2023-07-29T04:54:31;1.98;;;1.17;;
9854;SDS011;4966;48.112;9.282;2023-07-29T04:56:57;2.03;;;1.10;;
9854;SDS011;4966;48.112;9.282;2023-07-29T04:59:22;2.35;;;1.00;;
9854;SDS011;4966;48.112;9.282;2023-07-29T05:01:47;5.07;;;1.60;;
9854;SDS011;4966;48.112;9.282;2023-07-29T05:04:13;3.35;;;1.50;;
9854;SDS011;4966;48.112;9.282;2023-07-29T05:06:38;2.60;;;1.33;;
9854;SDS011;4966;48.112;9.282;2023-07-29T05:09:13;3.30;;;1.20;;
9854;SDS011;4966;48.112;9.282;2023-07-29T05:11:39;2.88;;;1.35;;
9854;SDS011;4966;48.112;9.282;2023-07-29T05:14:05;3.28;;;1.20;;
9854;SDS011;4966;48.112;9.282;2023-07-29T05:16:31;4.25;;;1.02;;
9854;SDS011;4966;48.112;9.282;2023-07-29T05:18:56;1.92;;;0.85;;
9854;SDS011;4966;48.112;9.282;2023-07-29T05:21:22;3.65;;;1.40;;
9854;SDS011;4966;48.112;9.282;2023-07-29T05:23:47;3.33;;;1.50;;
9854;SDS011;4966;48.112;9.282;2023-07-29T05:26:12;2.25;;;0.98;;
9854;SDS011;4966;48.112;9.282;2023-07-29T05:28:37;2.30;;;1.08;;
9854;SDS011;4966;48.112;9.282;2023-07-29T05:31:03;6.72;;;1.23;;
9854;SDS011;4966;48.112;9.282;2023-07-29T05:33:28;3.17;;;1.40;;
9854;SDS011;4966;48.112;9.282;2023-07-29T05:35:54;2.53;;;1.42;;
9854;SDS011;4966;48.112;9.282;2023-07-29T05:38:19;4.22;;;1.30;;
9854;SDS011;4966;48.112;9.282;2023-07-29T05:40:45;3.65;;;1.00;;
9854;SDS011;4966;48.112;9.282;2023-07-29T05:43:10;4.93;;;1.67;;
9854;SDS011;4966;48.112;9.282;2023-07-29T05:45:35;1.83;;;1.17;;
9854;SDS011;4966;48.112;9.282;2023-07-29T05:48:01;8.90;;;1.50;;
9854;SDS011;4966;48.112;9.282;2023-07-29T05:50:26;3.47;;;1.15;;
9854;SDS011;4966;48.112;9.282;2023-07-29T05:52:51;1.00;;;0.90;;
9854;SDS011;4966;48.112;9.282;2023-07-29T05:55:17;1.95;;;1.35;;
9854;SDS011;4966;48.112;9.282;2023-07-29T05:57:42;3.38;;;1.60;;
9854;SDS011;4966;48.112;9.282;2023-07-29T06:00:07;1.23;;;1.13;;
9854;SDS011;4966;48.112;9.282;2023-07-29T06:02:33;2.78;;;1.40;;
9854;SDS011;4966;48.112;9.282;2023-07-29T06:04:59;2.15;;;1.60;;
9854;SDS011;4966;48.112;9.282;2023-07-29T06:07:24;2.78;;;2.15;;
9854;SDS011;4966;48.112;9.282;2023-07-29T06:09:53;4.10;;;1.55;;
9854;SDS011;4966;48.112;9.282;2023-07-29T06:12:20;4.97;;;1.83;;
9854;SDS011;4966;48.112;9.282;2023-07-29T06:14:45;3.45;;;1.98;;
9854;SDS011;4966;48.112;9.282;2023-07-29T06:17:10;2.10;;;1.33;;
9854;SDS011;4966;48.112;9.282;2023-07-29T06:19:36;3.15;;;1.70;;
9854;SDS011;4966;48.112;9.282;2023-07-29T06:22:01;2.42;;;1.98;;
9854;SDS011;4966;48.112;9.282;2023-07-29T06:24:27;2.55;;;1.77;;
9854;SDS011;4966;48.112;9.282;2023-07-29T06:26:52;3.45;;;2.30;;
9854;SDS011;4966;48.112;9.282;2023-07-29T06:29:18;1.95;;;1.48;;
9854;SDS011;4966;48.112;9.282;2023-07-29T06:31:43;3.28;;;2.20;;
9854;SDS011;4966;48.112;9.282;2023-07-29T06:34:08;3.97;;;2.58;;
9854;SDS011;4966;48.112;9.282;2023-07-29T06:36:34;2.20;;;1.77;;
9854;SDS011;4966;48.112;9.282;2023-07-29T06:38:59;2.25;;;1.92;;
9854;SDS011;4966;48.112;9.282;2023-07-29T06:41:24;4.35;;;2.25;;
9854;SDS011;4966;48.112;9.282;2023-07-29T06:43:50;2.80;;;1.70;;
9854;SDS011;4966;48.112;9.282;2023-07-29T06:46:15;2.95;;;2.15;;
9854;SDS011;4966;48.112;9.282;2023-07-29T06:48:40;2.20;;;1.55;;
9854;SDS011;4966;48.112;9.282;2023-07-29T06:51:06;3.85;;;1.55;;
9854;SDS011;4966;48.112;9.282;2023-07-29T06:53:31;1.50;;;1.08;;
9854;SDS011;4966;48.112;9.282;2023-07-29T06:55:56;1.20;;;0.88;;
9854;SDS011;4966;48.112;9.282;2023-07-29T06:58:22;1.08;;;0.73;;
9854;SDS011;4966;48.112;9.282;2023-07-29T07:00:47;1.95;;;1.20;;
9854;SDS011;4966;48.112;9.282;2023-07-29T07:03:13;2.03;;;1.13;;
9854;SDS011;4966;48.112;9.282;2023-07-29T07:05:38;2.00;;;1.02;;
9854;SDS011;4966;48.112;9.282;2023-07-29T07:08:03;2.85;;;1.48;;
9854;SDS011;4966;48.112;9.282;2023-07-29T07:10:29;1.73;;;1.38;;
9854;SDS011;4966;48.112;9.282;2023-07-29T07:12:54;2.15;;;1.30;;
9854;SDS011;4966;48.112;9.282;2023-07-29T07:15:20;1.98;;;1.20;;
9854;SDS011;4966;48.112;9.282;2023-07-29T07:17:45;1.70;;;1.08;;
9854;SDS011;4966;48.112;9.282;2023-07-29T07:20:10;1.23;;;0.85;;
9854;SDS011;4966;48.112;9.282;2023-07-29T07:22:36;1.48;;;1.05;;
9854;SDS011;4966;48.112;9.282;2023-07-29T07:25:02;1.38;;;1.27;;
9854;SDS011;4966;48.112;9.282;2023-07-29T07:27:27;3.63;;;1.60;;
9854;SDS011;4966;48.112;9.282;2023-07-29T07:29:52;2.97;;;1.20;;
9854;SDS011;4966;48.112;9.282;2023-07-29T07:32:18;1.45;;;0.75;;
9854;SDS011;4966;48.112;9.282;2023-07-29T07:34:43;4.50;;;1.98;;
9854;SDS011;4966;48.112;9.282;2023-07-29T07:37:08;2.30;;;1.30;;
9854;SDS011;4966;48.112;9.282;2023-07-29T07:39:34;1.52;;;1.20;;
9854;SDS011;4966;48.112;9.282;2023-07-29T07:41:59;2.17;;;0.95;;
9854;SDS011;4966;48.112;9.282;2023-07-29T07:44:24;0.75;;;0.60;;
9854;SDS011;4966;48.112;9.282;2023-07-29T07:46:51;2.45;;;1.63;;
9854;SDS011;4966;48.112;9.282;2023-07-29T07:49:17;0.95;;;0.90;;
9854;SDS011;4966;48.112;9.282;2023-07-29T07:51:43;0.98;;;0.88;;
9854;SDS011;4966;48.112;9.282;2023-07-29T07:54:09;3.03;;;1.08;;
9854;SDS011;4966;48.112;9.282;2023-07-29T07:56:34;0.75;;;0.70;;
9854;SDS011;4966;48.112;9.282;2023-07-29T07:58:59;1.35;;;1.25;;
9854;SDS011;4966;48.112;9.282;2023-07-29T08:01:25;1.17;;;0.88;;
9854;SDS011;4966;48.112;9.282;2023-07-29T08:03:50;0.38;;;0.35;;
9854;SDS011;4966;48.112;9.282;2023-07-29T08:06:15;0.95;;;0.85;;
9854;SDS011;4966;48.112;9.282;2023-07-29T08:08:41;1.13;;;0.98;;
9854;SDS011;4966;48.112;9.282;2023-07-29T08:11:06;1.48;;;0.98;;
9854;SDS011;4966;48.112;9.282;2023-07-29T08:13:31;1.58;;;0.80;;
9854;SDS011;4966;48.112;9.282;2023-07-29T08:15:57;2.67;;;0.80;;
9854;SDS011;4966;48.112;9.282;2023-07-29T08:18:22;2.45;;;1.83;;
9854;SDS011;4966;48.112;9.282;2023-07-29T08:20:51;2.25;;;1.77;;
9854;SDS011;4966;48.112;9.282;2023-07-29T08:23:30;1.50;;;0.85;;
9854;SDS011;4966;48.112;9.282;2023-07-29T08:25:57;2.70;;;0.77;;
9854;SDS011;4966;48.112;9.282;2023-07-29T08:28:30;0.60;;;0.35;;
9854;SDS011;4966;48.112;9.282;2023-07-29T08:31:00;0.90;;;0.57;;
9854;SDS011;4966;48.112;9.282;2023-07-29T08:33:26;4.15;;;1.20;;
9854;SDS011;4966;48.112;9.282;2023-07-29T08:35:51;2.05;;;1.02;;
9854;SDS011;4966;48.112;9.282;2023-07-29T08:38:17;0.65;;;0.45;;
9854;SDS011;4966;48.112;9.282;2023-07-29T08:43:29;1.20;;;0.80;;
9854;SDS011;4966;48.112;9.282;2023-07-29T08:45:58;0.65;;;0.65;;
9854;SDS011;4966;48.112;9.282;2023-07-29T08:48:29;0.30;;;0.30;;
9854;SDS011;4966;48.112;9.282;2023-07-29T08:50:58;0.55;;;0.47;;
9854;SDS011;4966;48.112;9.282;2023-07-29T08:53:26;0.80;;;0.70;;
9854;SDS011;4966;48.112;9.282;2023-07-29T08:55:52;0.43;;;0.30;;
9854;SDS011;4966;48.112;9.282;2023-07-29T08:58:20;0.98;;;0.93;;
9854;SDS011;4966;48.112;9.282;2023-07-29T09:00:47;0.60;;;0.60;;
9854;SDS011;4966;48.112;9.282;2023-07-29T09:03:13;1.30;;;0.68;;
9854;SDS011;4966;48.112;9.282;2023-07-29T09:05:38;8.52;;;1.40;;
9854;SDS011;4966;48.112;9.282;2023-07-29T09:08:04;1.23;;;0.70;;
9854;SDS011;4966;48.112;9.282;2023-07-29T09:10:29;0.20;;;0.20;;
9854;SDS011;4966;48.112;9.282;2023-07-29T09:12:55;0.30;;;0.30;;
9854;SDS011;4966;48.112;9.282;2023-07-29T09:15:30;1.08;;;0.52;;
9854;SDS011;4966;48.112;9.282;2023-07-29T09:17:57;0.20;;;0.20;;
9854;SDS011;4966;48.112;9.282;2023-07-29T09:20:28;0.00;;;0.00;;
9854;SDS011;4966;48.112;9.282;2023-07-29T09:22:54;0.30;;;0.30;;
9854;SDS011;4966;48.112;9.282;2023-07-29T09:25:24;0.32;;;0.20;;
9854;SDS011;4966;48.112;9.282;2023-07-29T09:27:50;0.15;;;0.15;;
9854;SDS011;4966;48.112;9.282;2023-07-29T09:30:16;0.30;;;0.30;;
9854;SDS011;4966;48.112;9.282;2023-07-29T09:32:42;1.20;;;0.60;;
9854;SDS011;4966;48.112;9.282;2023-07-29T09:35:10;0.88;;;0.55;;
9854;SDS011;4966;48.112;9.282;2023-07-29T09:37:37;2.05;;;0.73;;
9854;SDS011;4966;48.112;9.282;2023-07-29T09:40:03;1.10;;;0.65;;
9854;SDS011;4966;48.112;9.282;2023-07-29T09:42:29;0.77;;;0.55;;
9854;SDS011;4966;48.112;9.282;2023-07-29T09:44:54;0.77;;;0.50;;
9854;SDS011;4966;48.112;9.282;2023-07-29T09:47:23;1.65;;;0.77;;
9854;SDS011;4966;48.112;9.282;2023-07-29T09:49:50;0.90;;;0.47;;
9854;SDS011;4966;48.112;9.282;2023-07-29T09:52:16;0.70;;;0.55;;
9854;SDS011;4966;48.112;9.282;2023-07-29T09:54:43;0.10;;;0.10;;
9854;SDS011;4966;48.112;9.282;2023-07-29T09:57:09;0.15;;;0.15;;
9854;SDS011;4966;48.112;9.282;2023-07-29T09:59:38;0.50;;;0.28;;
9854;SDS011;4966;48.112;9.282;2023-07-29T10:02:04;0.28;;;0.28;;
9854;SDS011;4966;48.112;9.282;2023-07-29T10:04:29;0.08;;;0.08;;
9854;SDS011;4966;48.112;9.282;2023-07-29T10:06:56;0.38;;;0.30;;
9854;SDS011;4966;48.112;9.282;2023-07-29T10:09:22;0.00;;;0.00;;
9854;SDS011;4966;48.112;9.282;2023-07-29T10:11:48;0.13;;;0.13;;
9854;SDS011;4966;48.112;9.282;2023-07-29T10:14:15;1.23;;;0.63;;
9854;SDS011;4966;48.112;9.282;2023-07-29T10:16:41;1.05;;;0.80;;
9854;SDS011;4966;48.112;9.282;2023-07-29T10:19:09;1.33;;;0.80;;
9854;SDS011;4966;48.112;9.282;2023-07-29T10:21:36;1.08;;;0.77;;
9854;SDS011;4966;48.112;9.282;2023-07-29T10:24:04;1.52;;;0.73;;
9854;SDS011;4966;48.112;9.282;2023-07-29T10:26:34;1.45;;;0.30;;
9854;SDS011;4966;48.112;9.282;2023-07-29T10:29:02;2.03;;;0.60;;
9854;SDS011;4966;48.112;9.282;2023-07-29T10:31:31;1.77;;;0.88;;
9854;SDS011;4966;48.112;9.282;2023-07-29T10:33:57;1.00;;;0.50;;
9854;SDS011;4966;48.112;9.282;2023-07-29T10:36:23;0.60;;;0.47;;
9854;SDS011;4966;48.112;9.282;2023-07-29T10:38:49;1.52;;;0.90;;
9854;SDS011;4966;48.112;9.282;2023-07-29T10:41:15;0.80;;;0.43;;
9854;SDS011;4966;48.112;9.282;2023-07-29T10:43:40;1.70;;;0.57;;
9854;SDS011;4966;48.112;9.282;2023-07-29T10:46:15;1.30;;;0.60;;
9854;SDS011;4966;48.112;9.282;2023-07-29T10:53:47;1.02;;;0.57;;
9854;SDS011;4966;48.112;9.282;2023-07-29T10:56:13;1.63;;;0.70;;
9854;SDS011;4966;48.112;9.282;2023-07-29T10:58:38;1.27;;;0.68;;
9854;SDS011;4966;48.112;9.282;2023-07-29T11:01:12;1.77;;;0.98;;
9854;SDS011;4966;48.112;9.282;2023-07-29T11:03:38;1.17;;;0.73;;
9854;SDS011;4966;48.112;9.282;2023-07-29T11:06:04;0.90;;;0.50;;
9854;SDS011;4966;48.112;9.282;2023-07-29T11:08:29;1.30;;;0.77;;
9854;SDS011;4966;48.112;9.282;2023-07-29T11:11:02;0.40;;;0.38;;
9854;SDS011;4966;48.112;9.282;2023-07-29T11:13:30;0.85;;;0.77;;
9854;SDS011;4966;48.112;9.282;2023-07-29T11:15:56;0.90;;;0.60;;
9854;SDS011;4966;48.112;9.282;2023-07-29T11:18:26;0.30;;;0.30;;
9854;SDS011;4966;48.112;9.282;2023-07-29T11:20:56;1.35;;;1.05;;
9854;SDS011;4966;48.112;9.282;2023-07-29T11:23:29;0.63;;;0.38;;
9854;SDS011;4966;48.112;9.282;2023-07-29T11:25:59;0.45;;;0.40;;
9854;SDS011;4966;48.112;9.282;2023-07-29T11:28:25;1.13;;;0.52;;
9854;SDS011;4966;48.112;9.282;2023-07-29T11:30:51;0.10;;;0.10;;
9854;SDS011;4966;48.112;9.282;2023-07-29T11:33:19;0.47;;;0.40;;
9854;SDS011;4966;48.112;9.282;2023-07-29T11:35:46;3.08;;;0.75;;
9854;SDS011;4966;48.112;9.282;2023-07-29T11:38:14;1.67;;;0.50;;
9854;SDS011;4966;48.112;9.282;2023-07-29T11:40:41;1.10;;;0.63;;
9854;SDS011;4966;48.112;9.282;2023-07-29T11:43:06;2.00;;;1.30;;
9854;SDS011;4966;48.112;9.282;2023-07-29T11:45:31;1.95;;;1.20;;
9854;SDS011;4966;48.112;9.282;2023-07-29T11:47:58;2.47;;;1.33;;
9854;SDS011;4966;48.112;9.282;2023-07-29T11:50:24;4.75;;;1.20;;
9854;SDS011;4966;48.112;9.282;2023-07-29T11:52:49;2.17;;;1.17;;
9854;SDS011;4966;48.112;9.282;2023-07-29T11:55:15;1.73;;;1.20;;
9854;SDS011;4966;48.112;9.282;2023-07-29T11:57:41;1.95;;;1.20;;
9854;SDS011;4966;48.112;9.282;2023-07-29T12:00:08;1.83;;;1.10;;
9854;SDS011;4966;48.112;9.282;2023-07-29T12:02:38;1.15;;;0.73;;
9854;SDS011;4966;48.112;9.282;2023-07-29T12:05:05;1.40;;;1.00;;
9854;SDS011;4966;48.112;9.282;2023-07-29T12:07:33;1.85;;;1.10;;
9854;SDS011;4966;48.112;9.282;2023-07-29T12:09:58;1.90;;;1.00;;
9854;SDS011;4966;48.112;9.282;2023-07-29T12:12:24;2.15;;;1.30;;
9854;SDS011;4966;48.112;9.282;2023-07-29T12:14:49;1.58;;;0.98;;
9854;SDS011;4966;48.112;9.282;2023-07-29T12:17:15;1.38;;;0.98;;
9854;SDS011;4966;48.112;9.282;2023-07-29T12:19:40;1.30;;;0.80;;
9854;SDS011;4966;48.112;9.282;2023-07-29T12:22:08;2.08;;;1.00;;
9854;SDS011;4966;48.112;9.282;2023-07-29T12:24:38;1.83;;;1.08;;
9854;SDS011;4966;48.112;9.282;2023-07-29T12:27:05;1.08;;;0.70;;
9854;SDS011;4966;48.112;9.282;2023-07-29T12:29:39;1.65;;;0.85;;
9854;SDS011;4966;48.112;9.282;2023-07-29T12:32:05;1.45;;;0.70;;
9854;SDS011;4966;48.112;9.282;2023-07-29T12:34:31;1.58;;;0.90;;
9854;SDS011;4966;48.112;9.282;2023-07-29T12:36:57;4.00;;;0.98;;
9854;SDS011;4966;48.112;9.282;2023-07-29T12:39:25;1.75;;;0.85;;
9854;SDS011;4966;48.112;9.282;2023-07-29T12:41:53;1.38;;;0.80;;
9854;SDS011;4966;48.112;9.282;2023-07-29T12:44:19;1.40;;;0.90;;
9854;SDS011;4966;48.112;9.282;2023-07-29T12:46:45;2.85;;;1.08;;
9854;SDS011;4966;48.112;9.282;2023-07-29T12:49:11;2.72;;;0.98;;
9854;SDS011;4966;48.112;9.282;2023-07-29T12:51:36;2.22;;;0.95;;
9854;SDS011;4966;48.112;9.282;2023-07-29T12:54:02;1.42;;;0.90;;
9854;SDS011;4966;48.112;9.282;2023-07-29T12:56:29;1.50;;;0.80;;
9854;SDS011;4966;48.112;9.282;2023-07-29T12:58:56;3.03;;;0.98;;
9854;SDS011;4966;48.112;9.282;2023-07-29T13:01:24;1.20;;;0.80;;
9854;SDS011;4966;48.112;9.282;2023-07-29T13:03:50;1.77;;;1.00;;
9854;SDS011;4966;48.112;9.282;2023-07-29T13:06:16;2.53;;;0.90;;
9854;SDS011;4966;48.112;9.282;2023-07-29T13:08:41;1.92;;;1.02;;
9854;SDS011;4966;48.112;9.282;2023-07-29T13:11:07;1.60;;;0.80;;
9854;SDS011;4966;48.112;9.282;2023-07-29T13:13:33;1.58;;;1.00;;
9854;SDS011;4966;48.112;9.282;2023-07-29T13:15:58;1.67;;;0.80;;
9854;SDS011;4966;48.112;9.282;2023-07-29T13:18:24;2.10;;;1.10;;
9854;SDS011;4966;48.112;9.282;2023-07-29T13:20:49;2.05;;;0.90;;
9854;SDS011;4966;48.112;9.282;2023-07-29T13:23:15;2.78;;;1.00;;
9854;SDS011;4966;48.112;9.282;2023-07-29T13:25:40;2.42;;;1.02;;
9854;SDS011;4966;48.112;9.282;2023-07-29T13:28:06;1.15;;;0.77;;
9854;SDS011;4966;48.112;9.282;2023-07-29T13:30:32;2.90;;;1.50;;
9854;SDS011;4966;48.112;9.282;2023-07-29T13:32:58;1.83;;;1.17;;
9854;SDS011;4966;48.112;9.282;2023-07-29T13:35:23;2.70;;;1.10;;
9854;SDS011;4966;48.112;9.282;2023-07-29T13:37:48;3.70;;;1.50;;
9854;SDS011;4966;48.112;9.282;2023-07-29T13:40:14;1.95;;;1.00;;
9854;SDS011;4966;48.112;9.282;2023-07-29T13:42:39;1.80;;;1.00;;
9854;SDS011;4966;48.112;9.282;2023-07-29T13:45:04;1.95;;;1.10;;
9854;SDS011;4966;48.112;9.282;2023-07-29T13:47:30;2.97;;;1.10;;
9854;SDS011;4966;48.112;9.282;2023-07-29T13:49:55;1.70;;;0.90;;
9854;SDS011;4966;48.112;9.282;2023-07-29T13:52:21;1.80;;;1.10;;
9854;SDS011;4966;48.112;9.282;2023-07-29T13:54:46;2.67;;;1.45;;
9854;SDS011;4966;48.112;9.282;2023-07-29T13:57:11;2.97;;;1.33;;
9854;SDS011;4966;48.112;9.282;2023-07-29T13:59:37;2.33;;;1.20;;
9854;SDS011;4966;48.112;9.282;2023-07-29T14:02:05;3.35;;;1.00;;
9854;SDS011;4966;48.112;9.282;2023-07-29T14:04:31;2.17;;;1.17;;
9854;SDS011;4966;48.112;9.282;2023-07-29T14:06:57;2.28;;;1.25;;
9854;SDS011;4966;48.112;9.282;2023-07-29T14:09:23;1.92;;;1.15;;
9854;SDS011;4966;48.112;9.282;2023-07-29T14:11:48;2.47;;;1.23;;
9854;SDS011;4966;48.112;9.282;2023-07-29T14:14:14;3.17;;;1.42;;
9854;SDS011;4966;48.112;9.282;2023-07-29T14:16:40;2.17;;;1.10;;
9854;SDS011;4966;48.112;9.282;2023-07-29T14:19:05;2.00;;;1.15;;
9854;SDS011;4966;48.112;9.282;2023-07-29T14:21:30;2.95;;;1.20;;
9854;SDS011;4966;48.112;9.282;2023-07-29T14:23:56;2.92;;;1.20;;
9854;SDS011;4966;48.112;9.282;2023-07-29T14:26:21;2.17;;;1.20;;
9854;SDS011;4966;48.112;9.282;2023-07-29T14:28:46;3.65;;;1.33;;
9854;SDS011;4966;48.112;9.282;2023-07-29T14:31:12;2.33;;;1.20;;
9854;SDS011;4966;48.112;9.282;2023-07-29T14:33:38;3.15;;;1.30;;
9854;SDS011;4966;48.112;9.282;2023-07-29T14:36:03;5.95;;;1.58;;
9854;SDS011;4966;48.112;9.282;2023-07-29T14:38:29;1.85;;;1.30;;
9854;SDS011;4966;48.112;9.282;2023-07-29T14:40:55;2.65;;;1.33;;
9854;SDS011;4966;48.112;9.282;2023-07-29T14:43:22;3.05;;;1.40;;
9854;SDS011;4966;48.112;9.282;2023-07-29T14:45:48;4.55;;;1.83;;
9854;SDS011;4966;48.112;9.282;2023-07-29T14:48:14;2.50;;;1.40;;
9854;SDS011;4966;48.112;9.282;2023-07-29T14:50:39;2.40;;;1.42;;
9854;SDS011;4966;48.112;9.282;2023-07-29T14:53:04;3.10;;;1.40;;
9854;SDS011;4966;48.112;9.282;2023-07-29T14:55:29;3.85;;;1.52;;
9854;SDS011;4966;48.112;9.282;2023-07-29T14:57:55;4.88;;;1.52;;
9854;SDS011;4966;48.112;9.282;2023-07-29T15:00:20;3.50;;;1.38;;
9854;SDS011;4966;48.112;9.282;2023-07-29T15:02:45;1.80;;;1.20;;
9854;SDS011;4966;48.112;9.282;2023-07-29T15:05:11;4.65;;;1.42;;
9854;SDS011;4966;48.112;9.282;2023-07-29T15:07:36;4.63;;;1.33;;
9854;SDS011;4966;48.112;9.282;2023-07-29T15:10:01;0.60;;;0.50;;
9854;SDS011;4966;48.112;9.282;2023-07-29T15:12:27;1.67;;;0.60;;
9854;SDS011;4966;48.112;9.282;2023-07-29T15:14:52;1.88;;;0.73;;
9854;SDS011;4966;48.112;9.282;2023-07-29T15:17:18;1.30;;;0.65;;
9854;SDS011;4966;48.112;9.282;2023-07-29T15:19:43;2.35;;;0.85;;
9854;SDS011;4966;48.112;9.282;2023-07-29T15:22:08;0.73;;;0.40;;